VOZ496 YBSU-YSSY
Flight info
| Callsign | VOZ496 |
|---|---|
| Flight time | 1h 19m |
| Altitude | 36000 |
| Route | MOOLO2 MOOLO Q35 SANEG H91 IGDAM H652 BOREE BOREE4A |
| Aircraft | B738/M-SDE2E3FGHIRWXY/LB1 |
Departure
| Time | 2026-05-08 08:26 |
|---|---|
| Airport | Sunshine Coast Airport (YBSU) |
Arrival
| Time | 2026-05-08 09:45 |
|---|---|
| Airport | Sydney Kingsford Smith International Airport (YSSY) |
| Time | Latitude | Longitude | Altitude | Speed | Heading |
|---|---|---|---|---|---|
| 2026-05-08 07:46 | -26.60566 | 153.08952 | 23 ft | 0 kts | 284° |
| 2026-05-08 08:11 | -26.60566 | 153.08953 | 23 ft | 2 kts | 284° |
| 2026-05-08 08:11 | -26.60572 | 153.08980 | 29 ft | 4 kts | 286° |
| 2026-05-08 08:11 | -26.60581 | 153.09009 | 26 ft | 4 kts | 292° |
| 2026-05-08 08:12 | -26.60593 | 153.09035 | 29 ft | 4 kts | 310° |
| 2026-05-08 08:12 | -26.60610 | 153.09048 | 25 ft | 3 kts | 10° |
| 2026-05-08 08:12 | -26.60613 | 153.09048 | 25 ft | 0 kts | 14° |
| 2026-05-08 08:16 | -26.60612 | 153.09048 | 25 ft | 1 kts | 14° |
| 2026-05-08 08:16 | -26.60596 | 153.09053 | 28 ft | 4 kts | 15° |
| 2026-05-08 08:16 | -26.60554 | 153.09065 | 25 ft | 8 kts | 15° |
| 2026-05-08 08:17 | -26.60494 | 153.09073 | 23 ft | 10 kts | 353° |
| 2026-05-08 08:17 | -26.60433 | 153.09033 | 25 ft | 11 kts | 320° |
| 2026-05-08 08:17 | -26.60371 | 153.08978 | 27 ft | 12 kts | 323° |
| 2026-05-08 08:17 | -26.60301 | 153.08919 | 23 ft | 13 kts | 323° |
| 2026-05-08 08:18 | -26.60228 | 153.08857 | 23 ft | 13 kts | 322° |
| 2026-05-08 08:18 | -26.60158 | 153.08796 | 25 ft | 13 kts | 322° |
| 2026-05-08 08:18 | -26.60087 | 153.08734 | 25 ft | 13 kts | 323° |
| 2026-05-08 08:18 | -26.60017 | 153.08675 | 23 ft | 13 kts | 323° |
| 2026-05-08 08:19 | -26.59946 | 153.08616 | 24 ft | 13 kts | 323° |
| 2026-05-08 08:19 | -26.59868 | 153.08550 | 27 ft | 14 kts | 323° |
| 2026-05-08 08:19 | -26.59785 | 153.08480 | 24 ft | 15 kts | 322° |
| 2026-05-08 08:19 | -26.59700 | 153.08407 | 25 ft | 15 kts | 322° |
| 2026-05-08 08:20 | -26.59618 | 153.08337 | 26 ft | 15 kts | 323° |
| 2026-05-08 08:20 | -26.59539 | 153.08271 | 24 ft | 14 kts | 323° |
| 2026-05-08 08:20 | -26.59464 | 153.08209 | 23 ft | 13 kts | 327° |
| 2026-05-08 08:20 | -26.59413 | 153.08196 | 23 ft | 0 kts | 42° |
| 2026-05-08 08:21 | -26.59399 | 153.08213 | 24 ft | 6 kts | 49° |
| 2026-05-08 08:21 | -26.59368 | 153.08254 | 22 ft | 7 kts | 50° |
| 2026-05-08 08:21 | -26.59327 | 153.08289 | 23 ft | 7 kts | 18° |
| 2026-05-08 08:21 | -26.59277 | 153.08276 | 21 ft | 8 kts | 332° |
| 2026-05-08 08:22 | -26.59217 | 153.08228 | 21 ft | 13 kts | 324° |
| 2026-05-08 08:22 | -26.59131 | 153.08157 | 23 ft | 17 kts | 323° |
| 2026-05-08 08:22 | -26.59031 | 153.08072 | 25 ft | 19 kts | 322° |
| 2026-05-08 08:22 | -26.58918 | 153.07975 | 23 ft | 22 kts | 322° |
| 2026-05-08 08:23 | -26.58794 | 153.07870 | 26 ft | 22 kts | 323° |
| 2026-05-08 08:23 | -26.58672 | 153.07768 | 27 ft | 22 kts | 323° |
| 2026-05-08 08:23 | -26.58554 | 153.07666 | 23 ft | 21 kts | 323° |
| 2026-05-08 08:23 | -26.58469 | 153.07583 | 22 ft | 12 kts | 305° |
| 2026-05-08 08:24 | -26.58433 | 153.07498 | 21 ft | 12 kts | 295° |
| 2026-05-08 08:24 | -26.58381 | 153.07441 | 23 ft | 9 kts | 339° |
| 2026-05-08 08:24 | -26.58340 | 153.07479 | 22 ft | 9 kts | 99° |
| 2026-05-08 08:24 | -26.58388 | 153.07525 | 22 ft | 9 kts | 143° |
| 2026-05-08 08:25 | -26.58407 | 153.07542 | 22 ft | 0 kts | 142° |
| 2026-05-08 08:25 | -26.58408 | 153.07542 | 22 ft | 1 kts | 142° |
| 2026-05-08 08:25 | -26.58544 | 153.07661 | 25 ft | 67 kts | 142° |
| 2026-05-08 08:26 | -26.59159 | 153.08181 | 21 ft | 152 kts | 143° |
| 2026-05-08 08:26 | -26.60144 | 153.09013 | 415 ft | 194 kts | 142° |
| 2026-05-08 08:26 | -26.61255 | 153.10009 | 1005 ft | 212 kts | 141° |
| 2026-05-08 08:26 | -26.62372 | 153.11057 | 1719 ft | 210 kts | 141° |
| 2026-05-08 08:27 | -26.63528 | 153.12081 | 2316 ft | 221 kts | 146° |
| 2026-05-08 08:27 | -26.64831 | 153.13179 | 2516 ft | 252 kts | 139° |
| 2026-05-08 08:27 | -26.66070 | 153.14674 | 3171 ft | 265 kts | 133° |
| 2026-05-08 08:27 | -26.67259 | 153.16256 | 4114 ft | 266 kts | 133° |
| 2026-05-08 08:28 | -26.68435 | 153.17832 | 5157 ft | 263 kts | 133° |
| 2026-05-08 08:28 | -26.69619 | 153.19405 | 6034 ft | 266 kts | 133° |
| 2026-05-08 08:28 | -26.70824 | 153.20990 | 6856 ft | 270 kts | 133° |
| 2026-05-08 08:28 | -26.72042 | 153.22583 | 7598 ft | 276 kts | 133° |
| 2026-05-08 08:29 | -26.73302 | 153.24224 | 8343 ft | 281 kts | 133° |
| 2026-05-08 08:29 | -26.74593 | 153.25903 | 9107 ft | 287 kts | 133° |
| 2026-05-08 08:29 | -26.75905 | 153.27606 | 9870 ft | 292 kts | 133° |
| 2026-05-08 08:29 | -26.77249 | 153.29351 | 10508 ft | 302 kts | 133° |
| 2026-05-08 08:30 | -26.78680 | 153.31204 | 10695 ft | 327 kts | 133° |
| 2026-05-08 08:30 | -26.80216 | 153.33194 | 10876 ft | 350 kts | 132° |
| 2026-05-08 08:30 | -26.84351 | 153.36150 | 11817 ft | 363 kts | 171° |
| 2026-05-08 08:31 | -26.86837 | 153.36300 | 12529 ft | 363 kts | 182° |
| 2026-05-08 08:31 | -26.88547 | 153.36254 | 12982 ft | 366 kts | 184° |
| 2026-05-08 08:31 | -26.89039 | 153.36235 | 13101 ft | 367 kts | 184° |
| 2026-05-08 08:31 | -26.90470 | 153.36173 | 13453 ft | 370 kts | 184° |
| 2026-05-08 08:32 | -26.93051 | 153.36053 | 14081 ft | 374 kts | 184° |
| 2026-05-08 08:32 | -26.95667 | 153.35938 | 14679 ft | 377 kts | 185° |
| 2026-05-08 08:32 | -26.98303 | 153.35832 | 15312 ft | 380 kts | 185° |
| 2026-05-08 08:32 | -27.00953 | 153.35736 | 15928 ft | 383 kts | 185° |
| 2026-05-08 08:33 | -27.03591 | 153.35648 | 16529 ft | 387 kts | 185° |
| 2026-05-08 08:33 | -27.06296 | 153.35561 | 17114 ft | 390 kts | 185° |
| 2026-05-08 08:33 | -27.09026 | 153.35475 | 17699 ft | 394 kts | 186° |
| 2026-05-08 08:33 | -27.11771 | 153.35389 | 18286 ft | 397 kts | 186° |
| 2026-05-08 08:34 | -27.14548 | 153.35303 | 18788 ft | 401 kts | 186° |
| 2026-05-08 08:34 | -27.17341 | 153.35216 | 19291 ft | 404 kts | 186° |
| 2026-05-08 08:34 | -27.20163 | 153.35128 | 19793 ft | 407 kts | 186° |
| 2026-05-08 08:34 | -27.23005 | 153.35039 | 20302 ft | 410 kts | 187° |
| 2026-05-08 08:35 | -27.25821 | 153.34951 | 20788 ft | 413 kts | 187° |
| 2026-05-08 08:35 | -27.28707 | 153.34861 | 21273 ft | 416 kts | 187° |
| 2026-05-08 08:35 | -27.31608 | 153.34770 | 21737 ft | 419 kts | 187° |
| 2026-05-08 08:35 | -27.34521 | 153.34586 | 22185 ft | 418 kts | 194° |
| 2026-05-08 08:36 | -27.37347 | 153.33882 | 22635 ft | 414 kts | 204° |
| 2026-05-08 08:36 | -27.40016 | 153.32706 | 23107 ft | 409 kts | 213° |
| 2026-05-08 08:36 | -27.42475 | 153.31124 | 23559 ft | 408 kts | 217° |
| 2026-05-08 08:36 | -27.44087 | 153.30025 | 23824 ft | 410 kts | 217° |
| 2026-05-08 08:37 | -27.46528 | 153.28339 | 24207 ft | 412 kts | 218° |
| 2026-05-08 08:37 | -27.49778 | 153.26100 | 24697 ft | 415 kts | 218° |
| 2026-05-08 08:37 | -27.52251 | 153.24410 | 25062 ft | 418 kts | 218° |
| 2026-05-08 08:37 | -27.54755 | 153.22708 | 25430 ft | 420 kts | 218° |
| 2026-05-08 08:38 | -27.57265 | 153.21009 | 25788 ft | 423 kts | 219° |
| 2026-05-08 08:38 | -27.59788 | 153.19305 | 26148 ft | 425 kts | 219° |
| 2026-05-08 08:38 | -27.62330 | 153.17587 | 26505 ft | 426 kts | 219° |
| 2026-05-08 08:38 | -27.64849 | 153.15885 | 26871 ft | 428 kts | 219° |
| 2026-05-08 08:39 | -27.67406 | 153.14156 | 27211 ft | 430 kts | 220° |
| 2026-05-08 08:39 | -27.69971 | 153.12419 | 27547 ft | 431 kts | 220° |
| 2026-05-08 08:39 | -27.72554 | 153.10670 | 27882 ft | 433 kts | 220° |
| 2026-05-08 08:39 | -27.74266 | 153.09510 | 28089 ft | 434 kts | 221° |
| 2026-05-08 08:40 | -27.77736 | 153.07158 | 28543 ft | 436 kts | 221° |
| 2026-05-08 08:40 | -27.80341 | 153.05391 | 28881 ft | 437 kts | 221° |
| 2026-05-08 08:40 | -27.82109 | 153.04273 | 29088 ft | 443 kts | 217° |
| 2026-05-08 08:40 | -27.85981 | 153.02452 | 29536 ft | 454 kts | 212° |
| 2026-05-08 08:41 | -27.87937 | 153.01619 | 29827 ft | 454 kts | 212° |
| 2026-05-08 08:41 | -27.91837 | 152.99977 | 30447 ft | 450 kts | 212° |
| 2026-05-08 08:41 | -27.94754 | 152.98735 | 30844 ft | 447 kts | 213° |
| 2026-05-08 08:41 | -27.97658 | 152.97478 | 31182 ft | 446 kts | 213° |
| 2026-05-08 08:42 | -27.99572 | 152.96642 | 31394 ft | 445 kts | 213° |
| 2026-05-08 08:42 | -28.02490 | 152.95361 | 31740 ft | 444 kts | 213° |
| 2026-05-08 08:42 | -28.05330 | 152.94113 | 32107 ft | 442 kts | 213° |
| 2026-05-08 08:42 | -28.08199 | 152.92855 | 32471 ft | 441 kts | 213° |
| 2026-05-08 08:43 | -28.11049 | 152.91600 | 32794 ft | 440 kts | 213° |
| 2026-05-08 08:43 | -28.13893 | 152.90338 | 33124 ft | 439 kts | 213° |
| 2026-05-08 08:43 | -28.17655 | 152.88663 | 33583 ft | 437 kts | 213° |
| 2026-05-08 08:43 | -28.19563 | 152.87812 | 33793 ft | 436 kts | 214° |
| 2026-05-08 08:44 | -28.23296 | 152.86146 | 34212 ft | 435 kts | 214° |
| 2026-05-08 08:44 | -28.26100 | 152.84894 | 34499 ft | 434 kts | 214° |
| 2026-05-08 08:44 | -28.28908 | 152.83641 | 34763 ft | 433 kts | 214° |
| 2026-05-08 08:44 | -28.30762 | 152.82813 | 34920 ft | 432 kts | 214° |
| 2026-05-08 08:45 | -28.33563 | 152.81561 | 35200 ft | 432 kts | 214° |
| 2026-05-08 08:45 | -28.36357 | 152.80313 | 35453 ft | 430 kts | 214° |
| 2026-05-08 08:45 | -28.40041 | 152.78666 | 35800 ft | 428 kts | 214° |
| 2026-05-08 08:45 | -28.41905 | 152.77834 | 36057 ft | 425 kts | 214° |
| 2026-05-08 08:46 | -28.47443 | 152.75348 | 36139 ft | 431 kts | 214° |
| 2026-05-08 08:46 | -28.52985 | 152.72861 | 36146 ft | 430 kts | 214° |
| 2026-05-08 08:47 | -28.58533 | 152.70376 | 36150 ft | 428 kts | 214° |
| 2026-05-08 08:47 | -28.64063 | 152.67893 | 36151 ft | 426 kts | 214° |
| 2026-05-08 08:48 | -28.69559 | 152.65419 | 36150 ft | 424 kts | 214° |
| 2026-05-08 08:48 | -28.75003 | 152.62967 | 36132 ft | 423 kts | 214° |
| 2026-05-08 08:49 | -28.80477 | 152.60497 | 36153 ft | 423 kts | 214° |
| 2026-05-08 08:49 | -28.85924 | 152.57956 | 36142 ft | 417 kts | 218° |
| 2026-05-08 08:50 | -28.91068 | 152.54954 | 36146 ft | 415 kts | 220° |
| 2026-05-08 08:50 | -28.96141 | 152.51875 | 36151 ft | 417 kts | 220° |
| 2026-05-08 08:51 | -29.01278 | 152.48781 | 36159 ft | 419 kts | 219° |
| 2026-05-08 08:51 | -29.06450 | 152.45691 | 36159 ft | 421 kts | 219° |
| 2026-05-08 08:52 | -29.11646 | 152.42593 | 36161 ft | 422 kts | 219° |
| 2026-05-08 08:52 | -29.16832 | 152.39500 | 36167 ft | 423 kts | 219° |
| 2026-05-08 08:53 | -29.22059 | 152.36378 | 36172 ft | 424 kts | 219° |
| 2026-05-08 08:53 | -29.27291 | 152.33249 | 36172 ft | 425 kts | 219° |
| 2026-05-08 08:54 | -29.32523 | 152.30116 | 36180 ft | 424 kts | 219° |
| 2026-05-08 08:54 | -29.37748 | 152.26984 | 36188 ft | 424 kts | 219° |
| 2026-05-08 08:55 | -29.42949 | 152.23861 | 36182 ft | 424 kts | 219° |
| 2026-05-08 08:55 | -29.48167 | 152.20726 | 36172 ft | 422 kts | 218° |
| 2026-05-08 08:56 | -29.53365 | 152.17599 | 36207 ft | 421 kts | 218° |
| 2026-05-08 08:56 | -29.58553 | 152.14472 | 36210 ft | 422 kts | 218° |
| 2026-05-08 08:57 | -29.63721 | 152.11353 | 36209 ft | 423 kts | 218° |
| 2026-05-08 08:57 | -29.68948 | 152.08231 | 36204 ft | 427 kts | 215° |
| 2026-05-08 08:58 | -29.71761 | 152.06986 | 36217 ft | 440 kts | 206° |
| 2026-05-08 08:58 | -29.74757 | 152.06145 | 36228 ft | 446 kts | 204° |
| 2026-05-08 08:58 | -29.80852 | 152.04623 | 36205 ft | 448 kts | 202° |
| 2026-05-08 08:59 | -29.86902 | 152.03105 | 36227 ft | 448 kts | 203° |
| 2026-05-08 08:59 | -29.92992 | 152.01530 | 36233 ft | 449 kts | 203° |
| 2026-05-08 09:00 | -29.99082 | 151.99935 | 36236 ft | 449 kts | 203° |
| 2026-05-08 09:00 | -30.05183 | 151.98334 | 36238 ft | 449 kts | 203° |
| 2026-05-08 09:01 | -30.11274 | 151.96735 | 36249 ft | 449 kts | 203° |
| 2026-05-08 09:01 | -30.17325 | 151.95145 | 36241 ft | 449 kts | 203° |
| 2026-05-08 09:02 | -30.23407 | 151.93545 | 36245 ft | 448 kts | 203° |
| 2026-05-08 09:02 | -30.29483 | 151.91944 | 36248 ft | 447 kts | 202° |
| 2026-05-08 09:03 | -30.35348 | 151.89915 | 36260 ft | 434 kts | 211° |
| 2026-05-08 09:03 | -30.40879 | 151.87308 | 36255 ft | 431 kts | 212° |
| 2026-05-08 09:04 | -30.46414 | 151.84664 | 36251 ft | 430 kts | 211° |
| 2026-05-08 09:04 | -30.51967 | 151.82046 | 36254 ft | 430 kts | 211° |
| 2026-05-08 09:05 | -30.57517 | 151.79448 | 36259 ft | 430 kts | 211° |
| 2026-05-08 09:05 | -30.63070 | 151.76851 | 36260 ft | 431 kts | 211° |
| 2026-05-08 09:06 | -30.68589 | 151.74268 | 36261 ft | 431 kts | 211° |
| 2026-05-08 09:06 | -30.74154 | 151.71659 | 36267 ft | 432 kts | 211° |
| 2026-05-08 09:07 | -30.79724 | 151.69044 | 36267 ft | 432 kts | 211° |
| 2026-05-08 09:07 | -30.85275 | 151.66434 | 36265 ft | 433 kts | 211° |
| 2026-05-08 09:08 | -30.90860 | 151.63806 | 36254 ft | 433 kts | 210° |
| 2026-05-08 09:08 | -30.96450 | 151.61172 | 36258 ft | 434 kts | 210° |
| 2026-05-08 09:09 | -31.02045 | 151.58533 | 36268 ft | 434 kts | 210° |
| 2026-05-08 09:09 | -31.07645 | 151.55887 | 36259 ft | 434 kts | 210° |
| 2026-05-08 09:10 | -31.13204 | 151.53258 | 36262 ft | 434 kts | 210° |
| 2026-05-08 09:10 | -31.18795 | 151.50610 | 36253 ft | 434 kts | 210° |
| 2026-05-08 09:11 | -31.24377 | 151.47963 | 36258 ft | 433 kts | 210° |
| 2026-05-08 09:11 | -31.29922 | 151.45329 | 36252 ft | 432 kts | 210° |
| 2026-05-08 09:12 | -31.35484 | 151.42685 | 36247 ft | 431 kts | 210° |
| 2026-05-08 09:12 | -31.41047 | 151.40069 | 36256 ft | 431 kts | 208° |
| 2026-05-08 09:13 | -31.46659 | 151.37576 | 36254 ft | 431 kts | 208° |
| 2026-05-08 09:13 | -31.52279 | 151.35096 | 36253 ft | 431 kts | 208° |
| 2026-05-08 09:14 | -31.57838 | 151.32624 | 36254 ft | 430 kts | 208° |
| 2026-05-08 09:14 | -31.63422 | 151.30127 | 36241 ft | 430 kts | 208° |
| 2026-05-08 09:15 | -31.69001 | 151.27628 | 36242 ft | 429 kts | 208° |
| 2026-05-08 09:15 | -31.74579 | 151.25126 | 36009 ft | 433 kts | 208° |
| 2026-05-08 09:16 | -31.77409 | 151.23852 | 35485 ft | 435 kts | 207° |
| 2026-05-08 09:16 | -31.80229 | 151.22587 | 34858 ft | 435 kts | 207° |
| 2026-05-08 09:16 | -31.83022 | 151.21332 | 34263 ft | 435 kts | 207° |
| 2026-05-08 09:16 | -31.85834 | 151.20069 | 33764 ft | 431 kts | 206° |
| 2026-05-08 09:17 | -31.88629 | 151.18813 | 33254 ft | 428 kts | 206° |
| 2026-05-08 09:17 | -31.91399 | 151.17566 | 32783 ft | 424 kts | 206° |
| 2026-05-08 09:17 | -31.94133 | 151.16334 | 32323 ft | 420 kts | 205° |
| 2026-05-08 09:17 | -31.96840 | 151.15118 | 32051 ft | 411 kts | 205° |
| 2026-05-08 09:18 | -31.99487 | 151.13935 | 31773 ft | 402 kts | 205° |
| 2026-05-08 09:18 | -32.02081 | 151.12776 | 31456 ft | 396 kts | 205° |
| 2026-05-08 09:18 | -32.04609 | 151.11643 | 31068 ft | 393 kts | 205° |
| 2026-05-08 09:18 | -32.07156 | 151.10499 | 30655 ft | 390 kts | 204° |
| 2026-05-08 09:19 | -32.09676 | 151.09366 | 30239 ft | 387 kts | 204° |
| 2026-05-08 09:19 | -32.12186 | 151.08237 | 29762 ft | 384 kts | 204° |
| 2026-05-08 09:19 | -32.14665 | 151.07123 | 29336 ft | 379 kts | 204° |
| 2026-05-08 09:19 | -32.17118 | 151.06019 | 28903 ft | 375 kts | 204° |
| 2026-05-08 09:20 | -32.19549 | 151.04925 | 28474 ft | 372 kts | 204° |
| 2026-05-08 09:20 | -32.21949 | 151.03843 | 28065 ft | 368 kts | 204° |
| 2026-05-08 09:20 | -32.24338 | 151.02766 | 27632 ft | 365 kts | 204° |
| 2026-05-08 09:20 | -32.26695 | 151.01702 | 27229 ft | 362 kts | 204° |
| 2026-05-08 09:21 | -32.29012 | 151.00657 | 26819 ft | 360 kts | 204° |
| 2026-05-08 09:21 | -32.31342 | 150.99604 | 26410 ft | 357 kts | 204° |
| 2026-05-08 09:22 | -32.44985 | 150.93431 | 24037 ft | 344 kts | 204° |
| 2026-05-08 09:23 | -32.47196 | 150.92449 | 23622 ft | 343 kts | 200° |
| 2026-05-08 09:23 | -32.49563 | 150.91839 | 23169 ft | 345 kts | 191° |
| 2026-05-08 09:23 | -32.51928 | 150.91651 | 22875 ft | 344 kts | 183° |
| 2026-05-08 09:23 | -32.54324 | 150.91911 | 22621 ft | 351 kts | 176° |
| 2026-05-08 09:24 | -32.56773 | 150.92347 | 22381 ft | 359 kts | 175° |
| 2026-05-08 09:24 | -32.59242 | 150.92818 | 22031 ft | 357 kts | 175° |
| 2026-05-08 09:24 | -32.61683 | 150.93284 | 21644 ft | 354 kts | 175° |
| 2026-05-08 09:24 | -32.64100 | 150.93737 | 21230 ft | 351 kts | 175° |
| 2026-05-08 09:25 | -32.66508 | 150.94180 | 20830 ft | 348 kts | 175° |
| 2026-05-08 09:25 | -32.68868 | 150.94609 | 20441 ft | 346 kts | 175° |
| 2026-05-08 09:25 | -32.71236 | 150.95036 | 20049 ft | 344 kts | 175° |
| 2026-05-08 09:25 | -32.73596 | 150.95461 | 19658 ft | 341 kts | 175° |
| 2026-05-08 09:26 | -32.75931 | 150.95882 | 19276 ft | 339 kts | 175° |
| 2026-05-08 09:26 | -32.78265 | 150.96303 | 18890 ft | 338 kts | 175° |
| 2026-05-08 09:26 | -32.80578 | 150.96718 | 18508 ft | 336 kts | 175° |
| 2026-05-08 09:26 | -32.82888 | 150.97129 | 18077 ft | 334 kts | 175° |
| 2026-05-08 09:27 | -32.85185 | 150.97536 | 17677 ft | 332 kts | 175° |
| 2026-05-08 09:27 | -32.87458 | 150.97938 | 17284 ft | 330 kts | 175° |
| 2026-05-08 09:27 | -32.89691 | 150.98335 | 16913 ft | 327 kts | 175° |
| 2026-05-08 09:27 | -32.91933 | 150.98733 | 16526 ft | 325 kts | 174° |
| 2026-05-08 09:28 | -32.94167 | 150.99130 | 16150 ft | 323 kts | 174° |
| 2026-05-08 09:28 | -32.96385 | 150.99524 | 15784 ft | 321 kts | 174° |
| 2026-05-08 09:28 | -32.98581 | 150.99915 | 15407 ft | 319 kts | 174° |
| 2026-05-08 09:28 | -33.00771 | 151.00305 | 15046 ft | 317 kts | 174° |
| 2026-05-08 09:29 | -33.02940 | 151.00691 | 14680 ft | 315 kts | 174° |
| 2026-05-08 09:29 | -33.05106 | 151.01077 | 14314 ft | 313 kts | 174° |
| 2026-05-08 09:29 | -33.07232 | 151.01456 | 13949 ft | 312 kts | 174° |
| 2026-05-08 09:29 | -33.09371 | 151.01838 | 13539 ft | 311 kts | 174° |
| 2026-05-08 09:30 | -33.11507 | 151.02219 | 13155 ft | 309 kts | 174° |
| 2026-05-08 09:30 | -33.13618 | 151.02597 | 12787 ft | 306 kts | 174° |
| 2026-05-08 09:30 | -33.15718 | 151.02972 | 12435 ft | 304 kts | 174° |
| 2026-05-08 09:30 | -33.17780 | 151.03341 | 12168 ft | 295 kts | 174° |
| 2026-05-08 09:31 | -33.19799 | 151.03703 | 11734 ft | 296 kts | 174° |
| 2026-05-08 09:31 | -33.21820 | 151.04064 | 11400 ft | 293 kts | 174° |
| 2026-05-08 09:31 | -33.23840 | 151.04425 | 11019 ft | 293 kts | 174° |
| 2026-05-08 09:31 | -33.25855 | 151.04804 | 10703 ft | 291 kts | 174° |
| 2026-05-08 09:32 | -33.27797 | 151.05178 | 10484 ft | 286 kts | 173° |
| 2026-05-08 09:32 | -33.27980 | 151.05213 | 10451 ft | 286 kts | 174° |
| 2026-05-08 09:32 | -33.28649 | 151.05342 | 10396 ft | 283 kts | 174° |
| 2026-05-08 09:32 | -33.30567 | 151.05712 | 10246 ft | 276 kts | 174° |
| 2026-05-08 09:33 | -33.32433 | 151.06070 | 10130 ft | 267 kts | 174° |
| 2026-05-08 09:33 | -33.34241 | 151.06417 | 9953 ft | 261 kts | 174° |
| 2026-05-08 09:33 | -33.36025 | 151.06758 | 9671 ft | 259 kts | 174° |
| 2026-05-08 09:33 | -33.37803 | 151.07097 | 9246 ft | 262 kts | 174° |
| 2026-05-08 09:34 | -33.39581 | 151.07437 | 8936 ft | 261 kts | 173° |
| 2026-05-08 09:34 | -33.41371 | 151.07781 | 8621 ft | 260 kts | 173° |
| 2026-05-08 09:34 | -33.43156 | 151.08124 | 8342 ft | 259 kts | 173° |
| 2026-05-08 09:34 | -33.44926 | 151.08464 | 8060 ft | 257 kts | 173° |
| 2026-05-08 09:35 | -33.46685 | 151.08802 | 7783 ft | 255 kts | 173° |
| 2026-05-08 09:35 | -33.48434 | 151.09138 | 7506 ft | 253 kts | 173° |
| 2026-05-08 09:35 | -33.50160 | 151.09470 | 7250 ft | 250 kts | 173° |
| 2026-05-08 09:35 | -33.51852 | 151.09796 | 7003 ft | 248 kts | 172° |
| 2026-05-08 09:36 | -33.53551 | 151.10123 | 6718 ft | 247 kts | 173° |
| 2026-05-08 09:36 | -33.55236 | 151.10447 | 6455 ft | 245 kts | 172° |
| 2026-05-08 09:36 | -33.56907 | 151.10770 | 6218 ft | 242 kts | 172° |
| 2026-05-08 09:36 | -33.58553 | 151.11087 | 6012 ft | 238 kts | 172° |
| 2026-05-08 09:37 | -33.60177 | 151.11401 | 5759 ft | 234 kts | 173° |
| 2026-05-08 09:37 | -33.61779 | 151.11711 | 5476 ft | 232 kts | 172° |
| 2026-05-08 09:37 | -33.63359 | 151.12022 | 5242 ft | 229 kts | 173° |
| 2026-05-08 09:37 | -33.64919 | 151.12330 | 4995 ft | 227 kts | 174° |
| 2026-05-08 09:38 | -33.66452 | 151.12633 | 4738 ft | 225 kts | 173° |
| 2026-05-08 09:38 | -33.67681 | 151.12876 | 4523 ft | 222 kts | 173° |
| 2026-05-08 09:38 | -33.69044 | 151.13146 | 4282 ft | 215 kts | 173° |
| 2026-05-08 09:38 | -33.70494 | 151.13408 | 4050 ft | 204 kts | 180° |
| 2026-05-08 09:39 | -33.71844 | 151.13332 | 3930 ft | 188 kts | 179° |
| 2026-05-08 09:39 | -33.73103 | 151.13482 | 3774 ft | 175 kts | 175° |
| 2026-05-08 09:39 | -33.74268 | 151.13694 | 3589 ft | 163 kts | 174° |
| 2026-05-08 09:39 | -33.75345 | 151.13912 | 3422 ft | 152 kts | 174° |
| 2026-05-08 09:40 | -33.76366 | 151.14125 | 3270 ft | 147 kts | 176° |
| 2026-05-08 09:40 | -33.77362 | 151.14312 | 3141 ft | 148 kts | 174° |
| 2026-05-08 09:40 | -33.78390 | 151.14546 | 3079 ft | 154 kts | 173° |
| 2026-05-08 09:40 | -33.79461 | 151.14812 | 3036 ft | 157 kts | 173° |
| 2026-05-08 09:41 | -33.80530 | 151.15086 | 2958 ft | 158 kts | 173° |
| 2026-05-08 09:41 | -33.81594 | 151.15362 | 2777 ft | 155 kts | 173° |
| 2026-05-08 09:41 | -33.82633 | 151.15633 | 2557 ft | 149 kts | 173° |
| 2026-05-08 09:41 | -33.83637 | 151.15893 | 2354 ft | 149 kts | 174° |
| 2026-05-08 09:42 | -33.84637 | 151.16153 | 2209 ft | 143 kts | 175° |
| 2026-05-08 09:42 | -33.85587 | 151.16401 | 2000 ft | 135 kts | 176° |
| 2026-05-08 09:42 | -33.86473 | 151.16631 | 1812 ft | 131 kts | 177° |
| 2026-05-08 09:42 | -33.87348 | 151.16857 | 1678 ft | 129 kts | 177° |
| 2026-05-08 09:43 | -33.88232 | 151.17085 | 1494 ft | 131 kts | 175° |
| 2026-05-08 09:43 | -33.89130 | 151.17318 | 1305 ft | 133 kts | 176° |
| 2026-05-08 09:43 | -33.90019 | 151.17550 | 1123 ft | 128 kts | 176° |
| 2026-05-08 09:43 | -33.90926 | 151.17784 | 971 ft | 137 kts | 174° |
| 2026-05-08 09:44 | -33.91873 | 151.18033 | 756 ft | 140 kts | 173° |
| 2026-05-08 09:44 | -33.92820 | 151.18278 | 552 ft | 139 kts | 174° |
| 2026-05-08 09:44 | -33.93766 | 151.18527 | 331 ft | 139 kts | 175° |
| 2026-05-08 09:44 | -33.94690 | 151.18761 | 144 ft | 138 kts | 174° |
| 2026-05-08 09:45 | -33.95612 | 151.19001 | 29 ft | 127 kts | 174° |
| 2026-05-08 09:45 | -33.96353 | 151.19188 | 27 ft | 89 kts | 168° |
| 2026-05-08 09:45 | -33.96755 | 151.19293 | 22 ft | 31 kts | 172° |
| 2026-05-08 09:45 | -33.96899 | 151.19291 | 25 ft | 17 kts | 185° |
| 2026-05-08 09:46 | -33.97004 | 151.19270 | 26 ft | 11 kts | 193° |
| 2026-05-08 09:46 | -33.97069 | 151.19252 | 28 ft | 9 kts | 193° |
| 2026-05-08 09:46 | -33.97121 | 151.19210 | 29 ft | 9 kts | 245° |
| 2026-05-08 09:46 | -33.97101 | 151.19144 | 29 ft | 9 kts | 327° |
| 2026-05-08 09:47 | -33.97043 | 151.19123 | 29 ft | 9 kts | 348° |
| 2026-05-08 09:47 | -33.96984 | 151.19108 | 29 ft | 9 kts | 348° |
| 2026-05-08 09:47 | -33.96927 | 151.19093 | 29 ft | 8 kts | 347° |
| 2026-05-08 09:47 | -33.96871 | 151.19078 | 29 ft | 8 kts | 347° |
| 2026-05-08 09:48 | -33.96817 | 151.19065 | 29 ft | 8 kts | 352° |
| 2026-05-08 09:48 | -33.96759 | 151.19066 | 29 ft | 9 kts | 11° |
| 2026-05-08 09:48 | -33.96686 | 151.19074 | 29 ft | 12 kts | 355° |
| 2026-05-08 09:48 | -33.96603 | 151.19052 | 29 ft | 13 kts | 347° |
| 2026-05-08 09:49 | -33.96508 | 151.19028 | 29 ft | 15 kts | 348° |
| 2026-05-08 09:49 | -33.96404 | 151.19002 | 29 ft | 16 kts | 348° |
| 2026-05-08 09:49 | -33.96292 | 151.18973 | 29 ft | 17 kts | 347° |
| 2026-05-08 09:49 | -33.96174 | 151.18942 | 29 ft | 16 kts | 349° |
| 2026-05-08 09:50 | -33.96061 | 151.18913 | 29 ft | 17 kts | 347° |
| 2026-05-08 09:50 | -33.95951 | 151.18883 | 29 ft | 16 kts | 347° |
| 2026-05-08 09:50 | -33.95844 | 151.18855 | 29 ft | 15 kts | 348° |
| 2026-05-08 09:50 | -33.95742 | 151.18829 | 29 ft | 15 kts | 348° |
| 2026-05-08 09:51 | -33.95644 | 151.18805 | 29 ft | 14 kts | 347° |
| 2026-05-08 09:51 | -33.95551 | 151.18780 | 29 ft | 13 kts | 347° |
| 2026-05-08 09:51 | -33.95462 | 151.18757 | 29 ft | 13 kts | 348° |
| 2026-05-08 09:51 | -33.95375 | 151.18735 | 29 ft | 13 kts | 348° |
| 2026-05-08 09:52 | -33.95292 | 151.18707 | 29 ft | 12 kts | 340° |
| 2026-05-08 09:52 | -33.95220 | 151.18656 | 29 ft | 12 kts | 324° |
| 2026-05-08 09:52 | -33.95158 | 151.18591 | 29 ft | 12 kts | 317° |
| 2026-05-08 09:52 | -33.95117 | 151.18510 | 29 ft | 11 kts | 289° |
| 2026-05-08 09:53 | -33.95116 | 151.18418 | 29 ft | 11 kts | 258° |
| 2026-05-08 09:53 | -33.95133 | 151.18329 | 29 ft | 11 kts | 257° |
| 2026-05-08 09:53 | -33.95149 | 151.18243 | 29 ft | 10 kts | 257° |
| 2026-05-08 09:53 | -33.95164 | 151.18159 | 29 ft | 10 kts | 257° |
| 2026-05-08 09:54 | -33.95179 | 151.18077 | 27 ft | 10 kts | 258° |
| 2026-05-08 09:54 | -33.95185 | 151.17997 | 29 ft | 10 kts | 279° |
| 2026-05-08 09:54 | -33.95153 | 151.17957 | 29 ft | 7 kts | 336° |
| 2026-05-08 09:54 | -33.95107 | 151.17945 | 29 ft | 7 kts | 350° |
| 2026-05-08 09:55 | -33.95060 | 151.17933 | 29 ft | 7 kts | 348° |
| 2026-05-08 09:55 | -33.95008 | 151.17920 | 29 ft | 9 kts | 348° |
| 2026-05-08 09:55 | -33.94942 | 151.17902 | 29 ft | 11 kts | 347° |
| 2026-05-08 09:55 | -33.94861 | 151.17881 | 29 ft | 13 kts | 348° |
| 2026-05-08 09:56 | -33.94768 | 151.17857 | 29 ft | 15 kts | 348° |
| 2026-05-08 09:56 | -33.94663 | 151.17830 | 29 ft | 16 kts | 348° |
| 2026-05-08 09:56 | -33.94549 | 151.17800 | 29 ft | 17 kts | 347° |
| 2026-05-08 09:56 | -33.94429 | 151.17765 | 29 ft | 15 kts | 345° |
| 2026-05-08 09:57 | -33.94228 | 151.17703 | 28 ft | 12 kts | 345° |
| 2026-05-08 09:57 | -33.94169 | 151.17684 | 28 ft | 1 kts | 345° |
| 2026-05-08 09:59 | -33.94152 | 151.17679 | 28 ft | 7 kts | 345° |
| 2026-05-08 09:59 | -33.94084 | 151.17659 | 27 ft | 13 kts | 347° |
| 2026-05-08 09:59 | -33.93994 | 151.17635 | 27 ft | 14 kts | 348° |
| 2026-05-08 10:00 | -33.93900 | 151.17610 | 28 ft | 13 kts | 347° |
| 2026-05-08 10:00 | -33.93798 | 151.17584 | 28 ft | 13 kts | 348° |
| 2026-05-08 10:00 | -33.93717 | 151.17564 | 28 ft | 12 kts | 348° |
| 2026-05-08 10:00 | -33.93657 | 151.17588 | 28 ft | 8 kts | 52° |
| 2026-05-08 10:01 | -33.93641 | 151.17647 | 29 ft | 7 kts | 90° |
| 2026-05-08 10:01 | -33.93647 | 151.17708 | 29 ft | 7 kts | 99° |
| 2026-05-08 10:01 | -33.93656 | 151.17766 | 29 ft | 7 kts | 99° |
| 2026-05-08 10:01 | -33.93635 | 151.17812 | 29 ft | 7 kts | 24° |
| 2026-05-08 10:02 | -33.93589 | 151.17825 | 29 ft | 7 kts | 11° |
| 2026-05-08 10:02 | -33.93542 | 151.17835 | 29 ft | 4 kts | 10° |
| 2026-05-08 10:02 | -33.93521 | 151.17840 | 29 ft | 3 kts | 19° |
| 2026-05-08 10:02 | -33.93515 | 151.17859 | 29 ft | 3 kts | 89° |
| 2026-05-08 10:03 | -33.93518 | 151.17883 | 29 ft | 3 kts | 99° |
| 2026-05-08 10:03 | -33.93519 | 151.17896 | 29 ft | 1 kts | 100° |
| 2026-05-08 10:03 | -33.93521 | 151.17908 | 29 ft | 2 kts | 100° |
| 2026-05-08 10:03 | -33.93522 | 151.17917 | 29 ft | 0 kts | 100° |
| 2026-05-08 10:04 | -33.93523 | 151.17919 | 29 ft | 0 kts | 100° |